Aérodrome :
LOGIN :

S'inscrire | Disclaimer

   EN    FR    IT 

 










Légende :    VFR   VFR Marginal   IFR   IFR Intensif   IFR Très Intensif
Visi : 
Plafond : 
>= 8 km
>= 3000ft
5 à 8 km
1000 à 3000 ft
1500m à 5 km
500 à 1000 ft
800 à 1500m
200 à 500 ft
< 800m
< 200 ft
Symboles :   Orages  Brouillard  Fortes neiges  Fortes précipitations  Vent > 20 kt
SIGMETs :   Divers  Orages  Givrage  Turbulence  Onde Orograph.  Cendres Volcan.







- Altitude de l'aérodrome : 1708 ft
- Code IATA : SJJ


LQSA - Sarajevo

DERNIER METAR :
  • 230700Z 33005KT 290V060 8000 -SN SCT020 BKN035 M07/M12 Q1033 NOSIG

METARs EXPIRÉS :
  • 230630Z 32005KT 270V050 9000 -SN SCT020 BKN035 M07/M11 Q1032 NOSIG
  • 230600Z 34007KT 310V060 8000 -SN SCT020 BKN035 M07/M12 Q1032 NOSIG
  • 230530Z 34007KT 310V040 8000 -SN SCT020 BKN035 M07/M12 Q1032 NOSIG
  • 230500Z 35008KT 320V030 8000 -SN SCT015 BKN030 M07/M11 Q1031 RESN NOSIG
  • 230430Z 34008KT 300V020 6000 SN SCT010 BKN025 M07/M12 Q1032 NOSIG

TAF TAF LQSA
Valide du 23 à 06h jusqu'au 24 à 06h UTC


230500Z 2306/2406 32012KT 4000 SN SCT010 BKN030
BECMG 2308/2310 9999 NSW
BECMG 2315/2318 VRB02KT
Pas de NOTAMs connus pour ce terrain.



MET'MAP, la Météo Aéronautique d'un coup d'oeil ! - Copyright ORBIFLY Décembre 2007 - Disclaimer

ORBIFLY MET'MAP TEAM :

Programmation & Développement : Alexandra Zaïnal
Conception & Développement : Baudouin d'Aumeries
Co-Programmation & Développement : Marc-Olivier Méhu
Soutien technique & logistique : Manuel Goepfert

Contact : metmap@orbifly.com




SOURCES & CREDITS :

   NOAA